createdAt,value
2023-09-08T00:02:30.263Z,7.22
2023-09-08T00:04:57.328Z,6.13
2023-09-08T00:07:24.129Z,6.03
2023-09-08T00:09:50.888Z,7.10
2023-09-08T00:14:44.979Z,7.30
2023-09-08T00:17:11.827Z,7.28
2023-09-08T00:22:07.563Z,7.10
2023-09-08T00:24:35.071Z,6.70
2023-09-08T00:27:01.924Z,6.50
2023-09-08T00:29:28.607Z,6.30
2023-09-08T00:34:21.799Z,7.07
2023-09-08T00:36:57.831Z,6.43
2023-09-08T00:39:24.472Z,6.95
2023-09-08T00:41:51.054Z,7.43
2023-09-08T00:44:17.565Z,7.45
2023-09-08T00:46:44.222Z,7.05
2023-09-08T00:51:39.226Z,7.00
2023-09-08T00:54:07.552Z,7.45
2023-09-08T00:56:35.106Z,7.20
2023-09-08T00:59:03.641Z,7.78
2023-09-08T01:01:30.510Z,7.32
2023-09-08T01:03:57.087Z,6.18
2023-09-08T01:06:24.838Z,6.50
2023-09-08T01:08:51.912Z,7.05
2023-09-08T01:11:21.029Z,7.22
2023-09-08T01:13:47.827Z,7.57
2023-09-08T01:18:42.909Z,7.03
2023-09-08T01:24:09.345Z,6.90
2023-09-08T01:26:41.858Z,6.75
2023-09-08T01:29:10.380Z,6.95
2023-09-08T01:31:40.340Z,7.35
2023-09-08T01:34:08.360Z,7.47
2023-09-08T01:36:36.286Z,7.32
2023-09-08T01:39:04.099Z,6.90
2023-09-08T01:41:36.725Z,6.50
2023-09-08T01:44:09.418Z,6.47
2023-09-08T01:46:36.209Z,8.32
2023-09-08T01:49:02.878Z,7.50
2023-09-08T01:51:29.669Z,6.68
2023-09-08T01:56:24.169Z,7.43
2023-09-08T01:58:50.772Z,6.43
2023-09-08T02:01:17.649Z,7.00
2023-09-08T02:03:44.285Z,7.18
2023-09-08T02:06:10.824Z,7.32
2023-09-08T02:08:37.685Z,7.88
2023-09-08T02:11:04.352Z,7.05
2023-09-08T02:13:30.926Z,8.68
2023-09-08T02:15:57.605Z,7.07
2023-09-08T02:20:52.732Z,8.10
2023-09-08T02:23:19.385Z,7.63
2023-09-08T02:25:46.090Z,6.78
2023-09-08T02:46:42.128Z,7.68
2023-09-08T02:49:08.962Z,7.97
2023-09-08T02:54:02.336Z,7.22
2023-09-08T02:58:55.607Z,7.72
2023-09-08T03:01:22.360Z,7.40
2023-09-08T03:06:20.335Z,8.30
2023-09-08T03:08:46.987Z,7.97
2023-09-08T03:11:14.381Z,7.93
2023-09-08T03:13:43.395Z,8.52
2023-09-08T03:16:12.027Z,7.97
2023-09-08T03:18:39.425Z,7.68
2023-09-08T03:21:12.924Z,8.20
2023-09-08T03:23:40.888Z,7.47
2023-09-08T03:26:08.514Z,7.60
2023-09-08T03:28:37.062Z,8.15
2023-09-08T03:31:07.556Z,7.05
2023-09-08T03:33:34.574Z,7.22
2023-09-08T03:36:01.497Z,7.35
2023-09-08T03:38:28.398Z,8.90
2023-09-08T03:40:55.138Z,8.07
2023-09-08T03:45:48.733Z,7.43
2023-09-08T03:48:15.491Z,7.50
2023-09-08T03:53:09.956Z,7.97
2023-09-08T03:58:03.037Z,7.88
2023-09-08T04:00:31.229Z,8.23
2023-09-08T04:02:58.211Z,8.10
2023-09-08T04:05:25.116Z,8.15
2023-09-08T04:07:51.862Z,8.23
2023-09-08T04:12:45.716Z,8.25
2023-09-08T04:15:12.456Z,8.65
2023-09-08T04:20:07.656Z,8.25
2023-09-08T04:22:34.915Z,8.07
2023-09-08T04:25:02.115Z,8.38
2023-09-08T04:27:28.797Z,8.82
2023-09-08T04:29:55.482Z,8.10
2023-09-08T04:34:50.436Z,8.40
2023-09-08T04:45:04.886Z,8.38
2023-09-08T04:47:31.692Z,8.43
2023-09-08T04:52:27.105Z,7.95
2023-09-08T04:54:56.534Z,8.73
2023-09-08T04:57:23.972Z,9.27
2023-09-08T04:59:51.282Z,8.88
2023-09-08T05:02:19.695Z,8.93
2023-09-08T05:04:46.772Z,8.38
2023-09-08T05:07:14.659Z,8.38
2023-09-08T05:09:41.663Z,8.80
2023-09-08T05:14:35.296Z,8.65
2023-09-08T05:19:28.686Z,8.00
2023-09-08T05:24:22.943Z,8.52
2023-09-08T05:29:16.288Z,10.43
2023-09-08T05:34:12.425Z,9.30
2023-09-08T05:36:42.187Z,8.65
2023-09-08T05:39:18.661Z,8.95
2023-09-08T05:42:01.178Z,8.73
2023-09-08T05:44:27.908Z,9.10
2023-09-08T05:47:01.073Z,9.00
2023-09-08T05:49:27.963Z,9.00
2023-09-08T05:51:54.730Z,10.23
2023-09-08T05:54:21.251Z,10.07
2023-09-08T05:56:47.818Z,9.05
2023-09-08T05:59:30.507Z,8.80
2023-09-08T06:01:57.172Z,9.40
2023-09-08T06:04:23.977Z,9.80
2023-09-08T06:06:50.906Z,9.85
2023-09-08T06:09:17.902Z,11.13
2023-09-08T06:11:44.475Z,10.15
2023-09-08T06:14:10.967Z,9.40
2023-09-08T06:16:38.640Z,10.07
2023-09-08T06:19:05.340Z,10.40
2023-09-08T06:21:32.079Z,11.02
2023-09-08T06:26:25.569Z,9.85
2023-09-08T06:31:19.020Z,9.63
2023-09-08T06:33:45.905Z,9.88
2023-09-08T06:36:12.522Z,10.02
2023-09-08T06:38:39.080Z,9.75
2023-09-08T06:41:12.574Z,9.13
2023-09-08T06:43:39.418Z,10.90
2023-09-08T06:46:06.032Z,10.07
2023-09-08T06:48:32.548Z,9.60
2023-09-08T06:50:59.991Z,9.75
2023-09-08T06:53:26.684Z,9.57
2023-09-08T06:58:19.787Z,9.10
2023-09-08T07:00:46.387Z,9.32
2023-09-08T07:05:42.902Z,9.00
2023-09-08T07:08:09.659Z,9.55
2023-09-08T07:13:03.142Z,9.18
2023-09-08T07:17:56.372Z,8.95
2023-09-08T07:20:23.217Z,9.80
2023-09-08T07:22:49.697Z,8.63
2023-09-08T07:25:16.337Z,8.60
2023-09-08T07:27:42.938Z,9.05
2023-09-08T07:30:09.921Z,8.45
2023-09-08T07:32:36.470Z,8.15
2023-09-08T07:35:03.142Z,8.30
2023-09-08T07:39:56.293Z,8.75
2023-09-08T07:44:53.321Z,7.40
2023-09-08T07:47:19.766Z,7.68
2023-09-08T07:49:48.781Z,7.15
2023-09-08T07:52:16.330Z,7.35
2023-09-08T07:54:45.892Z,8.18
2023-09-08T07:57:14.635Z,8.10
2023-09-08T07:59:41.172Z,7.68
2023-09-08T08:02:07.742Z,8.60
2023-09-08T08:04:34.309Z,6.90
2023-09-08T08:07:00.848Z,6.97
2023-09-08T08:09:27.317Z,7.28
2023-09-08T08:11:53.930Z,8.48
2023-09-08T08:16:46.943Z,7.22
2023-09-08T08:29:08.549Z,6.93
2023-09-08T08:32:03.040Z,7.53
2023-09-08T08:34:32.863Z,6.85
2023-09-08T08:37:14.279Z,6.53
2023-09-08T08:39:48.261Z,7.15
2023-09-08T08:46:07.824Z,7.00
2023-09-08T08:48:42.860Z,6.88
2023-09-08T08:53:40.837Z,7.13
2023-09-08T08:56:49.678Z,6.82
2023-09-08T09:01:51.181Z,6.82
2023-09-08T09:04:18.822Z,6.75
2023-09-08T09:06:48.517Z,6.03
2023-09-08T09:09:16.212Z,6.47
2023-09-08T09:11:43.185Z,5.93
2023-09-08T09:14:10.309Z,5.97
2023-09-08T09:16:41.818Z,5.90
2023-09-08T09:19:09.968Z,5.78
2023-09-08T09:25:01.005Z,6.03
2023-09-08T09:27:32.318Z,6.15
2023-09-08T09:30:02.181Z,6.72
2023-09-08T09:35:13.271Z,6.20
2023-09-08T09:41:19.542Z,6.05
2023-09-08T09:43:46.363Z,6.60
2023-09-08T09:46:13.057Z,6.43
2023-09-08T09:48:42.462Z,6.50
2023-09-08T09:51:49.243Z,6.30
2023-09-08T09:54:46.585Z,6.47
2023-09-08T10:00:03.129Z,6.55
2023-09-08T10:02:32.010Z,6.10
2023-09-08T10:05:12.891Z,6.55
2023-09-08T10:07:40.982Z,5.72
2023-09-08T10:12:56.770Z,5.82
2023-09-08T10:15:28.455Z,6.22
2023-09-08T10:18:05.986Z,6.72
2023-09-08T10:20:34.884Z,5.95
2023-09-08T10:23:17.163Z,5.93
2023-09-08T10:26:52.660Z,6.55
2023-09-08T10:29:54.734Z,6.47
2023-09-08T10:32:38.013Z,5.88
2023-09-08T10:41:25.539Z,5.47
2023-09-08T10:44:09.045Z,5.90
2023-09-08T10:46:36.461Z,5.18
2023-09-08T10:49:18.378Z,5.57
2023-09-08T10:51:46.084Z,6.07
2023-09-08T10:54:13.044Z,5.93
2023-09-08T10:56:50.885Z,5.57
2023-09-08T10:59:17.807Z,5.88
2023-09-08T11:01:44.384Z,5.43
2023-09-08T11:06:58.847Z,4.80
2023-09-08T11:09:25.381Z,5.53
2023-09-08T11:14:18.740Z,4.63
2023-09-08T11:16:45.363Z,4.28
2023-09-08T11:19:28.519Z,5.32
2023-09-08T11:21:55.080Z,4.05
2023-09-08T11:27:04.306Z,5.93
2023-09-08T11:29:30.818Z,5.43
2023-09-08T11:34:23.893Z,4.70
2023-09-08T11:36:50.460Z,5.07
2023-09-08T11:39:16.950Z,5.28
2023-09-08T11:44:10.050Z,5.15
2023-09-08T11:46:36.717Z,4.95
2023-09-08T11:49:05.457Z,5.18
2023-09-08T11:51:31.939Z,4.65
2023-09-08T11:56:25.294Z,5.25
2023-09-08T11:58:52.410Z,5.30
2023-09-08T12:01:19.934Z,4.93
2023-09-08T12:04:22.943Z,4.80
2023-09-08T12:06:51.005Z,4.55
2023-09-08T12:09:18.010Z,5.00
2023-09-08T12:11:44.854Z,4.78
2023-09-08T12:14:13.963Z,4.68
2023-09-08T12:16:41.599Z,4.68
2023-09-08T12:19:09.266Z,5.32
2023-09-08T12:21:55.515Z,4.72
2023-09-08T12:24:50.244Z,4.88
2023-09-08T12:27:18.086Z,5.05
2023-09-08T12:29:55.434Z,4.30
2023-09-08T12:32:23.181Z,4.72
2023-09-08T12:34:49.688Z,4.75
2023-09-08T12:39:46.684Z,5.25
2023-09-08T12:44:40.215Z,4.80
2023-09-08T12:49:33.817Z,4.10
2023-09-08T12:52:00.338Z,4.35
2023-09-08T12:56:54.064Z,4.63
2023-09-08T12:59:20.617Z,4.28
2023-09-08T13:01:47.086Z,4.55
2023-09-08T13:06:50.746Z,3.90
2023-09-08T13:09:17.766Z,4.75
2023-09-08T13:11:44.982Z,4.20
2023-09-08T13:14:11.597Z,4.05
2023-09-08T13:16:38.266Z,4.07
2023-09-08T13:19:05.116Z,4.63
2023-09-08T13:21:31.990Z,4.30
2023-09-08T13:24:07.829Z,4.93
2023-09-08T13:29:39.938Z,4.20
2023-09-08T13:32:07.101Z,4.55
2023-09-08T13:38:33.395Z,4.50
2023-09-08T13:41:08.933Z,3.95
2023-09-08T13:43:56.019Z,4.88
2023-09-08T13:46:23.150Z,4.97
2023-09-08T13:48:50.704Z,4.30
2023-09-08T13:51:28.095Z,4.60
2023-09-08T13:58:09.420Z,4.63
2023-09-08T14:00:39.562Z,4.53
2023-09-08T14:09:54.590Z,4.63
2023-09-08T14:12:33.334Z,4.55
2023-09-08T14:15:08.141Z,4.53
2023-09-08T14:22:11.264Z,5.13
2023-09-08T14:24:48.513Z,5.40
2023-09-08T14:27:15.491Z,5.22
2023-09-08T14:29:45.395Z,4.57
2023-09-08T14:36:21.107Z,5.65
2023-09-08T14:39:28.397Z,4.32
2023-09-08T14:41:59.694Z,4.95
2023-09-08T14:44:40.828Z,4.80
2023-09-08T14:47:29.487Z,4.95
2023-09-08T14:53:43.111Z,5.18
2023-09-08T14:56:10.077Z,5.47
2023-09-08T14:59:05.803Z,5.25
2023-09-08T15:01:35.082Z,4.30
2023-09-08T15:04:02.044Z,4.50
2023-09-08T15:06:32.489Z,4.53
2023-09-08T15:09:00.400Z,5.38
2023-09-08T15:11:27.955Z,4.45
2023-09-08T15:13:58.662Z,4.82
2023-09-08T15:16:25.352Z,5.25
2023-09-08T15:19:18.107Z,5.28
2023-09-08T15:21:44.929Z,4.90
2023-09-08T15:24:11.796Z,5.43
2023-09-08T15:26:41.756Z,4.65
2023-09-08T15:29:09.814Z,4.60
2023-09-08T15:31:50.098Z,5.07
2023-09-08T15:34:27.080Z,4.35
2023-09-08T15:36:54.139Z,5.30
2023-09-08T15:39:23.626Z,4.90
2023-09-08T15:41:50.895Z,5.22
2023-09-08T15:44:29.694Z,4.93
2023-09-08T15:47:36.515Z,4.85
2023-09-08T15:50:20.195Z,5.10
2023-09-08T16:00:34.115Z,5.40
2023-09-08T16:05:59.695Z,4.75
2023-09-08T16:08:27.127Z,4.85
2023-09-08T16:10:54.574Z,4.40
2023-09-08T16:13:21.989Z,5.07
2023-09-08T16:15:48.881Z,5.45
2023-09-08T16:18:16.030Z,5.20
2023-09-08T16:20:51.482Z,5.47
2023-09-08T16:23:18.939Z,4.80
2023-09-08T16:28:34.284Z,5.38
2023-09-08T16:31:16.164Z,5.15
2023-09-08T16:33:46.180Z,5.55
2023-09-08T16:36:17.906Z,5.65
2023-09-08T16:39:12.868Z,4.88
2023-09-08T16:41:43.894Z,5.55
2023-09-08T16:44:14.273Z,5.82
2023-09-08T16:46:41.241Z,5.93
2023-09-08T17:09:40.277Z,5.53
2023-09-08T17:12:08.364Z,7.05
2023-09-08T17:14:36.275Z,5.65
2023-09-08T17:17:05.381Z,5.57
2023-09-08T17:19:32.264Z,6.45
2023-09-08T17:22:01.250Z,6.00
2023-09-08T17:24:28.656Z,6.50
2023-09-08T17:26:56.558Z,7.32
2023-09-08T17:29:23.089Z,6.47
2023-09-08T17:34:21.182Z,7.28
2023-09-08T17:36:57.123Z,7.15
2023-09-08T17:39:24.710Z,7.00
2023-09-08T17:41:51.245Z,7.10
2023-09-08T17:44:21.714Z,6.28
2023-09-08T17:46:50.105Z,7.30
2023-09-08T17:49:16.726Z,7.57
2023-09-08T17:54:09.719Z,7.57
2023-09-08T17:59:02.625Z,7.65
2023-09-08T18:01:29.285Z,7.03
2023-09-08T18:03:56.068Z,7.60
2023-09-08T18:06:22.664Z,6.80
2023-09-08T18:08:52.707Z,6.97
2023-09-08T18:11:22.040Z,7.43
2023-09-08T18:13:49.657Z,7.00
2023-09-08T18:16:16.507Z,7.05
2023-09-08T18:18:44.813Z,7.22
2023-09-08T18:21:16.116Z,7.68
2023-09-08T18:23:42.746Z,8.30
2023-09-08T18:28:36.078Z,7.78
2023-09-08T18:31:06.002Z,7.82
2023-09-08T18:33:32.574Z,7.07
2023-09-08T18:38:26.742Z,6.85
2023-09-08T18:40:53.488Z,8.27
2023-09-08T18:43:20.101Z,7.55
2023-09-08T18:48:13.613Z,7.95
2023-09-08T18:50:40.133Z,7.68
2023-09-08T18:53:06.841Z,7.97
2023-09-08T18:58:03.784Z,8.02
2023-09-08T19:00:31.040Z,8.30
2023-09-08T19:02:59.864Z,7.82
2023-09-08T19:05:26.852Z,8.10
2023-09-08T19:07:53.580Z,7.53
2023-09-08T19:10:20.289Z,9.00
2023-09-08T19:12:47.016Z,7.60
2023-09-08T19:15:13.832Z,7.80
2023-09-08T19:17:40.755Z,8.98
2023-09-08T19:20:10.674Z,8.82
2023-09-08T19:22:37.740Z,8.18
2023-09-08T19:25:10.692Z,8.05
2023-09-08T19:27:37.610Z,7.95
2023-09-08T19:30:08.006Z,8.23
2023-09-08T19:32:34.661Z,8.75
2023-09-08T19:37:27.997Z,8.23
2023-09-08T19:42:20.972Z,8.15
2023-09-08T19:44:47.480Z,8.88
2023-09-08T19:47:14.178Z,9.05
2023-09-08T19:52:13.711Z,8.15
2023-09-08T19:54:41.266Z,9.43
2023-09-08T19:57:07.735Z,9.68
2023-09-08T19:59:36.675Z,9.40
2023-09-08T20:02:03.211Z,8.73
2023-09-08T20:06:58.368Z,10.43
2023-09-08T20:09:25.643Z,8.43
2023-09-08T20:11:52.716Z,9.68
2023-09-08T20:14:19.638Z,10.60
2023-09-08T20:16:46.138Z,10.18
2023-09-08T20:19:15.731Z,9.98
2023-09-08T20:21:42.256Z,9.20
2023-09-08T20:24:08.912Z,10.35
2023-09-08T20:29:01.922Z,10.60
2023-09-08T20:31:28.436Z,8.98
2023-09-08T20:33:55.221Z,9.65
2023-09-08T20:36:21.678Z,10.32
2023-09-08T20:38:48.179Z,10.63
2023-09-08T20:41:14.757Z,11.43
2023-09-08T20:46:08.472Z,11.13
2023-09-08T20:48:37.314Z,10.57
2023-09-08T20:51:05.999Z,10.57
2023-09-08T20:53:33.882Z,10.68
2023-09-08T20:56:00.618Z,11.95
2023-09-08T20:58:27.230Z,10.25
2023-09-08T21:00:57.382Z,11.30
2023-09-08T21:03:24.078Z,9.75
2023-09-08T21:08:19.714Z,11.10
2023-09-08T21:10:46.866Z,10.93
2023-09-08T21:13:13.362Z,10.45
2023-09-08T21:15:39.944Z,9.65
2023-09-08T21:18:07.649Z,10.15
2023-09-08T21:20:37.252Z,9.63
2023-09-08T21:23:04.273Z,9.45
2023-09-08T21:25:32.142Z,11.20
2023-09-08T21:27:58.931Z,10.55
2023-09-08T21:32:52.328Z,11.02
2023-09-08T21:35:19.175Z,10.35
2023-09-08T21:40:12.439Z,11.07
2023-09-08T21:42:38.977Z,10.02
2023-09-08T21:45:07.655Z,10.85
2023-09-08T21:47:34.251Z,10.15
2023-09-08T21:50:00.737Z,10.73
2023-09-08T21:52:37.408Z,11.10
2023-09-08T21:55:05.514Z,11.73
2023-09-08T21:57:32.058Z,10.63
2023-09-08T21:59:58.584Z,9.93
2023-09-08T22:02:25.300Z,11.32
2023-09-08T22:04:52.191Z,10.32
2023-09-08T22:07:18.769Z,11.50
2023-09-08T22:09:45.245Z,11.23
2023-09-08T22:12:16.486Z,10.57
2023-09-08T22:14:42.960Z,10.85
2023-09-08T22:17:09.588Z,11.27
2023-09-08T22:22:02.538Z,11.23
2023-09-08T22:24:29.481Z,10.80
2023-09-08T22:29:23.495Z,11.18
2023-09-08T22:31:50.164Z,11.00
2023-09-08T22:36:43.441Z,11.20
2023-09-08T22:39:12.649Z,11.35
2023-09-08T22:41:39.727Z,11.95
2023-09-08T22:44:06.694Z,11.20
2023-09-08T22:46:33.401Z,10.98
2023-09-08T22:51:26.483Z,10.73
2023-09-08T22:53:53.367Z,11.02
2023-09-08T22:56:20.026Z,10.40
2023-09-08T22:58:46.562Z,10.65
2023-09-08T23:01:13.162Z,10.65
2023-09-08T23:06:06.785Z,10.50
2023-09-08T23:10:59.850Z,10.57
2023-09-08T23:13:26.287Z,11.18
2023-09-08T23:15:53.313Z,10.23
2023-09-08T23:18:20.220Z,10.40
2023-09-08T23:20:48.924Z,10.75
2023-09-08T23:23:15.760Z,10.77
2023-09-08T23:25:42.212Z,10.77
2023-09-08T23:28:08.709Z,11.73
2023-09-08T23:30:35.874Z,11.07
2023-09-08T23:33:02.512Z,10.63
2023-09-08T23:37:55.652Z,10.35
2023-09-08T23:40:22.085Z,10.80
2023-09-08T23:42:48.538Z,10.13
2023-09-08T23:45:14.971Z,11.68
2023-09-08T23:47:41.518Z,11.35
2023-09-08T23:50:08.791Z,9.90
2023-09-08T23:52:35.285Z,11.65
2023-09-08T23:55:01.729Z,10.80
2023-09-08T23:57:28.278Z,10.77
2023-09-08T23:59:54.906Z,11.00
